createdAt,value
2019-04-21T00:00:35.524Z,18.67
2019-04-21T00:03:22.981Z,17.20
2019-04-21T00:06:03.243Z,18.12
2019-04-21T00:08:54.101Z,17.00
2019-04-21T00:11:09.374Z,13.08
2019-04-21T00:13:33.959Z,13.08
2019-04-21T00:15:55.015Z,12.65
2019-04-21T00:18:32.233Z,14.60
2019-04-21T00:21:08.272Z,12.73
2019-04-21T00:23:41.268Z,11.45
2019-04-21T00:26:07.549Z,12.78
2019-04-21T00:28:59.478Z,14.20
2019-04-21T00:31:19.309Z,14.63
2019-04-21T00:33:37.294Z,13.13
2019-04-21T00:36:11.264Z,12.20
2019-04-21T00:39:06.676Z,12.00
2019-04-21T00:41:29.529Z,15.75
2019-04-21T00:43:50.923Z,15.20
2019-04-21T00:46:22.991Z,14.98
2019-04-21T00:49:00.330Z,13.00
2019-04-21T00:51:40.858Z,14.13
2019-04-21T00:54:11.870Z,12.25
2019-04-21T00:56:36.521Z,12.93
2019-04-21T00:59:11.703Z,10.30
2019-04-21T01:01:38.226Z,11.70
2019-04-21T01:04:09.694Z,14.38
2019-04-21T01:06:42.735Z,12.58
2019-04-21T01:09:09.396Z,11.93
2019-04-21T01:11:47.360Z,11.15
2019-04-21T01:14:13.187Z,11.63
2019-04-21T01:16:45.905Z,12.07
2019-04-21T01:19:13.936Z,15.40
2019-04-21T01:21:22.615Z,12.07
2019-04-21T01:23:55.646Z,13.80
2019-04-21T01:26:32.879Z,16.32
2019-04-21T01:29:12.091Z,13.30
2019-04-21T01:31:42.256Z,13.38
2019-04-21T01:34:19.111Z,11.48
2019-04-21T01:36:47.488Z,12.07
2019-04-21T01:39:22.602Z,12.50
2019-04-21T01:41:55.419Z,12.58
2019-04-21T01:44:25.753Z,11.48
2019-04-21T01:46:45.733Z,14.70
2019-04-21T01:49:11.567Z,13.65
2019-04-21T01:52:15.169Z,13.72
2019-04-21T01:54:48.076Z,18.65
2019-04-21T01:57:17.647Z,16.20
2019-04-21T01:59:43.884Z,13.00
2019-04-21T02:02:28.074Z,14.18
2019-04-21T02:04:57.567Z,11.88
2019-04-21T02:07:27.037Z,11.80
2019-04-21T02:10:00.824Z,12.30
2019-04-21T02:12:25.285Z,14.25
2019-04-21T02:15:17.097Z,12.33
2019-04-21T02:17:29.230Z,9.73
2019-04-21T02:19:56.151Z,10.38
2019-04-21T02:22:41.550Z,11.53
2019-04-21T02:25:00.976Z,9.48
2019-04-21T02:27:32.527Z,10.90
2019-04-21T02:30:12.103Z,13.80
2019-04-21T02:32:47.999Z,10.60
2019-04-21T02:35:25.534Z,11.25
2019-04-21T02:37:54.960Z,12.30
2019-04-21T02:43:07.239Z,11.85
2019-04-21T02:47:53.448Z,14.13
2019-04-21T02:55:22.176Z,12.30
2019-04-21T02:57:59.526Z,12.40
2019-04-21T03:05:50.776Z,11.65
2019-04-21T03:08:40.469Z,10.58
2019-04-21T03:11:06.546Z,13.90
2019-04-21T03:13:31.407Z,14.25
2019-04-21T03:16:11.843Z,10.23
2019-04-21T03:23:30.229Z,11.85
2019-04-21T03:28:49.521Z,11.00
2019-04-21T03:31:19.739Z,10.80
2019-04-21T03:38:36.962Z,11.18
2019-04-21T03:41:04.752Z,10.40
2019-04-21T03:43:34.848Z,11.45
2019-04-21T03:46:24.716Z,12.18
2019-04-21T03:51:15.986Z,10.80
2019-04-21T03:53:37.830Z,12.78
2019-04-21T03:56:14.743Z,12.93
2019-04-21T03:58:54.337Z,10.95
2019-04-21T04:06:45.022Z,11.75
2019-04-21T04:11:47.392Z,12.75
2019-04-21T04:16:50.337Z,13.45
2019-04-21T04:21:47.807Z,11.40
2019-04-21T04:24:22.338Z,11.25
2019-04-21T04:31:44.058Z,13.40
2019-04-21T04:34:21.960Z,11.73
2019-04-21T04:39:36.623Z,12.80
2019-04-21T04:42:12.350Z,14.43
2019-04-21T04:45:00.776Z,10.93
2019-04-21T04:49:47.596Z,12.47
2019-04-21T04:57:29.061Z,12.45
2019-04-21T04:59:53.956Z,12.10
2019-04-21T05:07:27.451Z,13.85
2019-04-21T05:09:46.598Z,12.18
2019-04-21T05:12:11.296Z,11.18
2019-04-21T05:14:46.728Z,13.58
2019-04-21T05:17:30.645Z,11.68
2019-04-21T05:20:07.234Z,10.72
2019-04-21T05:22:22.225Z,13.35
2019-04-21T05:24:41.907Z,14.65
2019-04-21T05:27:08.652Z,13.35
2019-04-21T05:29:53.956Z,23.98
2019-04-21T05:32:29.879Z,15.10
2019-04-21T05:34:55.701Z,13.60
2019-04-21T05:37:50.457Z,12.55
2019-04-21T05:40:15.817Z,13.50
2019-04-21T05:42:47.595Z,10.48
2019-04-21T05:45:24.180Z,12.25
2019-04-21T05:48:04.752Z,13.70
2019-04-21T05:50:30.571Z,11.55
2019-04-21T05:52:57.553Z,11.03
2019-04-21T05:55:38.543Z,13.30
2019-04-21T05:58:03.937Z,12.30
2019-04-21T06:00:55.938Z,13.43
2019-04-21T06:03:11.526Z,14.73
2019-04-21T06:05:48.096Z,14.58
2019-04-21T06:08:08.173Z,11.50
2019-04-21T06:10:43.596Z,12.75
2019-04-21T06:13:17.045Z,11.00
2019-04-21T06:15:45.570Z,14.23
2019-04-21T06:18:13.243Z,15.05
2019-04-21T06:20:40.602Z,15.23
2019-04-21T06:23:15.574Z,11.97
2019-04-21T06:25:55.352Z,11.25
2019-04-21T06:28:19.257Z,13.32
2019-04-21T06:33:19.658Z,14.13
2019-04-21T06:36:20.094Z,17.40
2019-04-21T06:38:54.480Z,12.40
2019-04-21T06:41:13.517Z,13.80
2019-04-21T06:43:48.472Z,13.70
2019-04-21T06:46:20.009Z,16.42
2019-04-21T06:48:53.828Z,14.30
2019-04-21T06:51:24.064Z,13.03
2019-04-21T06:53:52.479Z,13.68
2019-04-21T06:56:21.811Z,12.13
2019-04-21T06:58:51.040Z,11.93
2019-04-21T07:01:24.198Z,11.48
2019-04-21T07:04:01.684Z,14.07
2019-04-21T07:06:26.118Z,14.40
2019-04-21T07:09:07.437Z,14.47
2019-04-21T07:11:21.402Z,14.30
2019-04-21T07:14:05.729Z,9.88
2019-04-21T07:16:32.039Z,9.80
2019-04-21T07:19:07.145Z,13.28
2019-04-21T07:21:29.962Z,11.78
2019-04-21T07:27:26.982Z,10.08
2019-04-21T07:29:55.591Z,8.13
2019-04-21T07:32:22.170Z,8.55
2019-04-21T07:34:53.844Z,10.70
2019-04-21T07:37:25.624Z,10.03
2019-04-21T07:39:51.231Z,9.35
2019-04-21T07:42:18.672Z,12.00
2019-04-21T07:45:13.355Z,8.70
2019-04-21T07:48:13.789Z,10.70
2019-04-21T07:50:54.384Z,12.78
2019-04-21T07:53:36.754Z,8.88
2019-04-21T07:55:39.244Z,8.93
2019-04-21T07:58:38.675Z,10.30
2019-04-21T08:01:18.429Z,10.45
2019-04-21T08:03:36.868Z,9.55
2019-04-21T08:06:05.009Z,10.13
2019-04-21T08:08:33.733Z,10.32
2019-04-21T08:11:02.970Z,8.98
2019-04-21T08:13:39.219Z,10.38
2019-04-21T08:16:10.986Z,21.70
2019-04-21T08:18:40.005Z,16.40
2019-04-21T08:21:05.763Z,12.15
2019-04-21T08:23:43.423Z,11.93
2019-04-21T08:26:34.519Z,10.32
2019-04-21T08:28:45.726Z,12.18
2019-04-21T08:31:16.877Z,10.38
2019-04-21T08:38:48.246Z,11.15
2019-04-21T08:41:18.665Z,11.55
2019-04-21T08:43:54.618Z,11.43
2019-04-21T08:46:27.276Z,14.63
2019-04-21T08:48:57.945Z,15.65
2019-04-21T08:51:40.802Z,11.15
2019-04-21T08:54:17.077Z,10.93
2019-04-21T08:56:27.751Z,12.80
2019-04-21T08:59:25.247Z,12.07
2019-04-21T09:01:53.199Z,9.40
2019-04-21T09:04:29.072Z,9.40
2019-04-21T09:07:05.166Z,12.78
2019-04-21T09:09:31.980Z,12.95
2019-04-21T09:12:01.647Z,13.93
2019-04-21T09:14:33.376Z,10.38
2019-04-21T09:16:56.265Z,10.90
2019-04-21T09:19:47.061Z,10.63
2019-04-21T09:22:17.898Z,13.22
2019-04-21T09:24:39.856Z,13.95
2019-04-21T09:27:03.479Z,12.30
2019-04-21T09:29:28.326Z,11.88
2019-04-21T09:31:50.267Z,10.85
2019-04-21T09:34:27.137Z,11.35
2019-04-21T09:36:54.879Z,13.05
2019-04-21T09:39:25.548Z,14.43
2019-04-21T09:41:57.086Z,13.80
2019-04-21T09:44:29.032Z,14.95
2019-04-21T09:46:58.609Z,11.80
2019-04-21T09:49:30.920Z,12.00
2019-04-21T09:51:57.669Z,12.78
2019-04-21T09:54:31.249Z,13.68
2019-04-21T09:57:03.273Z,12.73
2019-04-21T09:59:33.572Z,9.28
2019-04-21T10:02:09.731Z,11.88
2019-04-21T10:04:31.112Z,20.92
2019-04-21T10:07:00.480Z,11.40
2019-04-21T10:09:30.979Z,12.55
2019-04-21T10:12:00.805Z,10.13
2019-04-21T10:14:30.954Z,10.95
2019-04-21T10:17:19.601Z,16.67
2019-04-21T10:19:49.069Z,9.35
2019-04-21T10:22:19.009Z,12.47
2019-04-21T10:24:48.856Z,12.53
2019-04-21T10:27:19.033Z,9.58
2019-04-21T10:29:49.073Z,11.95
2019-04-21T10:32:23.189Z,8.53
2019-04-21T10:34:50.095Z,10.53
2019-04-21T10:37:19.276Z,9.73
2019-04-21T10:39:49.554Z,9.03
2019-04-21T10:42:19.516Z,11.50
2019-04-21T10:44:49.405Z,11.78
2019-04-21T10:47:18.702Z,8.48
2019-04-21T10:49:48.657Z,6.72
2019-04-21T10:52:19.574Z,7.08
2019-04-21T10:55:12.876Z,8.43
2019-04-21T10:57:24.524Z,10.98
2019-04-21T10:59:55.897Z,10.80
2019-04-21T11:02:35.224Z,9.08
2019-04-21T11:05:06.889Z,13.78
2019-04-21T11:07:58.929Z,8.48
2019-04-21T11:10:16.018Z,8.18
2019-04-21T11:12:47.634Z,10.48
2019-04-21T11:15:17.120Z,15.45
2019-04-21T11:17:47.312Z,8.55
2019-04-21T11:20:17.347Z,11.12
2019-04-21T11:22:47.311Z,7.78
2019-04-21T11:25:17.784Z,6.87
2019-04-21T11:27:47.148Z,8.95
2019-04-21T11:30:17.541Z,10.13
2019-04-21T11:32:49.095Z,8.28
2019-04-21T11:35:19.188Z,7.90
2019-04-21T11:37:50.311Z,7.40
2019-04-21T11:40:21.620Z,8.60
2019-04-21T11:42:51.580Z,8.08
2019-04-21T11:45:28.352Z,8.80
2019-04-21T11:48:14.488Z,9.15
2019-04-21T11:50:43.704Z,9.60
2019-04-21T11:53:12.967Z,9.95
2019-04-21T11:55:46.391Z,9.65
2019-04-21T11:58:14.064Z,9.33
2019-04-21T12:00:45.393Z,10.20
2019-04-21T12:03:15.692Z,7.72
2019-04-21T12:05:45.569Z,7.08
2019-04-21T12:08:23.073Z,8.73
2019-04-21T12:10:45.643Z,8.30
2019-04-21T12:13:16.162Z,10.25
2019-04-21T12:15:45.502Z,11.33
2019-04-21T12:18:15.524Z,7.35
2019-04-21T12:20:45.171Z,6.55
2019-04-21T12:23:14.511Z,7.47
2019-04-21T12:25:45.415Z,9.68
2019-04-21T12:28:14.591Z,8.30
2019-04-21T12:30:45.263Z,8.33
2019-04-21T12:33:20.216Z,8.13
2019-04-21T12:35:49.796Z,9.85
2019-04-21T12:38:30.110Z,9.45
2019-04-21T12:40:50.780Z,12.80
2019-04-21T12:43:20.999Z,7.95
2019-04-21T12:45:51.529Z,7.70
2019-04-21T12:48:22.163Z,7.92
2019-04-21T12:50:51.961Z,9.48
2019-04-21T12:53:21.489Z,6.60
2019-04-21T12:55:51.749Z,7.67
2019-04-21T12:58:21.465Z,6.95
2019-04-21T13:00:51.655Z,7.25
2019-04-21T13:03:23.318Z,7.45
2019-04-21T13:05:51.877Z,7.92
2019-04-21T13:08:21.767Z,9.28
2019-04-21T13:10:52.007Z,6.92
2019-04-21T13:13:22.066Z,7.55
2019-04-21T13:15:51.745Z,5.40
2019-04-21T13:18:22.671Z,6.58
2019-04-21T13:20:51.983Z,8.58
2019-04-21T13:23:21.362Z,5.87
2019-04-21T13:25:51.674Z,5.60
2019-04-21T13:28:22.781Z,8.10
2019-04-21T13:30:52.217Z,6.47
2019-04-21T13:33:22.959Z,5.15
2019-04-21T13:35:53.118Z,8.33
2019-04-21T13:38:30.093Z,5.53
2019-04-21T13:41:14.971Z,8.00
2019-04-21T13:43:30.769Z,5.90
2019-04-21T13:46:01.730Z,5.95
2019-04-21T13:48:32.650Z,7.12
2019-04-21T13:51:02.027Z,8.70
2019-04-21T13:53:33.119Z,7.17
2019-04-21T13:56:02.650Z,8.30
2019-04-21T13:58:34.603Z,4.78
2019-04-21T14:01:05.660Z,4.87
2019-04-21T14:03:35.464Z,5.58
2019-04-21T14:06:04.828Z,4.15
2019-04-21T14:08:50.346Z,4.72
2019-04-21T14:11:19.831Z,8.48
2019-04-21T14:13:50.421Z,6.17
2019-04-21T14:16:20.313Z,6.30
2019-04-21T14:18:49.741Z,4.20
2019-04-21T14:21:21.112Z,4.80
2019-04-21T14:23:52.478Z,6.78
2019-04-21T14:26:22.385Z,8.73
2019-04-21T14:28:52.812Z,7.50
2019-04-21T14:31:22.188Z,5.33
2019-04-21T14:33:52.129Z,4.62
2019-04-21T14:36:21.323Z,4.42
2019-04-21T14:38:50.585Z,4.22
2019-04-21T14:41:20.046Z,6.45
2019-04-21T14:43:50.153Z,3.58
2019-04-21T14:46:21.521Z,5.50
2019-04-21T14:49:11.100Z,5.08
2019-04-21T14:51:45.445Z,5.75
2019-04-21T14:54:20.621Z,5.83
2019-04-21T14:56:51.038Z,4.55
2019-04-21T14:59:21.374Z,4.95
2019-04-21T15:01:52.109Z,5.90
2019-04-21T15:04:22.451Z,4.40
2019-04-21T15:06:52.432Z,3.40
2019-04-21T15:09:22.957Z,4.78
2019-04-21T15:11:52.215Z,6.05
2019-04-21T15:14:22.482Z,5.47
2019-04-21T15:16:51.658Z,3.58
2019-04-21T15:19:22.511Z,4.72
2019-04-21T15:21:52.404Z,4.50
2019-04-21T15:24:22.478Z,5.53
2019-04-21T15:26:54.657Z,4.70
2019-04-21T15:29:24.706Z,3.72
2019-04-21T15:31:54.639Z,5.17
2019-04-21T15:34:25.919Z,5.65
2019-04-21T15:36:55.898Z,4.67
2019-04-21T15:39:25.741Z,3.92
2019-04-21T15:41:56.719Z,3.52
2019-04-21T15:44:27.098Z,4.95
2019-04-21T15:46:57.645Z,4.08
2019-04-21T15:49:40.534Z,7.87
2019-04-21T15:52:00.128Z,7.17
2019-04-21T15:54:29.492Z,4.40
2019-04-21T15:57:02.842Z,4.47
2019-04-21T15:59:46.557Z,4.10
2019-04-21T16:02:34.835Z,2.92
2019-04-21T16:05:06.598Z,3.62
2019-04-21T16:07:36.223Z,7.95
2019-04-21T16:10:08.680Z,5.55
2019-04-21T16:12:37.895Z,2.83
2019-04-21T16:15:08.446Z,4.95
2019-04-21T16:17:39.269Z,4.55
2019-04-21T16:20:10.164Z,4.15
2019-04-21T16:22:39.572Z,4.83
2019-04-21T16:25:10.616Z,3.20
2019-04-21T16:27:41.135Z,2.75
2019-04-21T16:30:12.167Z,3.35
2019-04-21T16:32:42.042Z,3.55
2019-04-21T16:35:14.352Z,5.05
2019-04-21T16:37:43.555Z,3.50
2019-04-21T16:40:13.757Z,6.67
2019-04-21T16:42:43.021Z,3.47
2019-04-21T16:45:12.747Z,5.40
2019-04-21T16:47:42.181Z,4.15
2019-04-21T16:50:13.929Z,2.70
2019-04-21T16:52:46.200Z,3.77
2019-04-21T16:55:26.776Z,4.67
2019-04-21T16:58:15.276Z,3.80
2019-04-21T17:00:54.725Z,4.22
2019-04-21T17:03:18.749Z,3.87
2019-04-21T17:05:48.282Z,3.95
2019-04-21T17:08:17.787Z,5.17
2019-04-21T17:10:59.159Z,2.60
2019-04-21T17:13:18.299Z,3.35
2019-04-21T17:16:09.706Z,4.30
2019-04-21T17:18:33.089Z,4.03
2019-04-21T17:20:55.371Z,2.83
2019-04-21T17:23:21.742Z,2.60
2019-04-21T17:25:51.060Z,3.50
2019-04-21T17:28:21.585Z,3.77
2019-04-21T17:30:50.976Z,5.62
2019-04-21T17:33:23.289Z,2.95
2019-04-21T17:35:51.164Z,3.85
2019-04-21T17:38:21.791Z,3.37
2019-04-21T17:40:51.753Z,3.75
2019-04-21T17:43:21.783Z,4.62
2019-04-21T17:45:51.181Z,3.35
2019-04-21T17:48:21.886Z,3.92
2019-04-21T17:50:59.170Z,7.03
2019-04-21T17:53:51.978Z,4.80
2019-04-21T17:56:47.827Z,4.20
2019-04-21T17:59:15.204Z,5.37
2019-04-21T18:01:45.045Z,3.80
2019-04-21T18:04:15.490Z,4.95
2019-04-21T18:06:51.603Z,3.35
2019-04-21T18:09:28.598Z,3.40
2019-04-21T18:11:57.846Z,3.67
2019-04-21T18:14:11.423Z,3.35
2019-04-21T18:16:46.236Z,6.90
2019-04-21T18:19:12.991Z,3.83
2019-04-21T18:21:54.134Z,6.03
2019-04-21T18:24:22.637Z,7.20
2019-04-21T18:26:56.868Z,5.83
2019-04-21T18:29:23.457Z,4.17
2019-04-21T18:31:54.214Z,6.08
2019-04-21T18:34:44.011Z,5.03
2019-04-21T18:37:14.201Z,5.50
2019-04-21T18:39:59.725Z,5.70
2019-04-21T18:43:05.532Z,4.97
2019-04-21T18:48:03.379Z,6.17
2019-04-21T18:50:41.698Z,7.35
2019-04-21T18:53:17.017Z,5.28
2019-04-21T18:55:43.252Z,4.75
2019-04-21T18:58:13.410Z,5.25
2019-04-21T19:00:43.659Z,7.08
2019-04-21T19:03:13.690Z,6.72
2019-04-21T19:05:47.784Z,7.53
2019-04-21T19:08:27.885Z,5.30
2019-04-21T19:11:04.057Z,8.48
2019-04-21T19:13:44.400Z,5.90
2019-04-21T19:19:04.413Z,6.28
2019-04-21T19:21:05.395Z,4.97
2019-04-21T19:23:45.260Z,8.65
2019-04-21T19:26:21.958Z,6.00
2019-04-21T19:28:49.746Z,5.12
2019-04-21T19:31:17.088Z,6.05
2019-04-21T19:33:36.138Z,6.17
2019-04-21T19:35:55.353Z,7.65
2019-04-21T19:38:35.272Z,6.58
2019-04-21T19:41:12.786Z,5.22
2019-04-21T19:43:48.899Z,5.50
2019-04-21T19:46:15.695Z,8.30
2019-04-21T19:48:56.573Z,4.40
2019-04-21T19:51:15.036Z,5.80
2019-04-21T19:53:44.895Z,4.00
2019-04-21T19:56:01.385Z,4.40
2019-04-21T19:58:36.091Z,5.05
2019-04-21T20:01:01.613Z,5.47
2019-04-21T20:03:32.479Z,4.25
2019-04-21T20:06:11.816Z,5.75
2019-04-21T20:08:43.451Z,7.42
2019-04-21T20:11:19.096Z,6.72
2019-04-21T20:14:03.230Z,6.15
2019-04-21T20:16:24.673Z,6.53
2019-04-21T20:18:42.594Z,9.05
2019-04-21T20:21:08.018Z,6.30
2019-04-21T20:23:39.514Z,7.67
2019-04-21T20:26:10.004Z,8.90
2019-04-21T20:28:49.271Z,5.00
2019-04-21T20:31:23.672Z,6.28
2019-04-21T20:34:03.526Z,8.13
2019-04-21T20:36:35.423Z,6.20
2019-04-21T20:38:51.521Z,7.53
2019-04-21T20:41:27.312Z,6.28
2019-04-21T20:44:01.047Z,8.90
2019-04-21T20:46:35.388Z,8.58
2019-04-21T20:49:00.180Z,9.40
2019-04-21T20:51:34.088Z,13.38
2019-04-21T20:54:02.963Z,8.18
2019-04-21T20:56:39.500Z,8.85
2019-04-21T20:59:11.300Z,8.13
2019-04-21T21:01:41.506Z,8.00
2019-04-21T21:04:06.426Z,7.15
2019-04-21T21:06:39.086Z,7.40
2019-04-21T21:09:11.714Z,7.30
2019-04-21T21:11:46.480Z,7.70
2019-04-21T21:14:16.156Z,7.85
2019-04-21T21:16:47.207Z,13.25
2019-04-21T21:21:44.485Z,8.98
2019-04-21T21:24:15.092Z,6.50
2019-04-21T21:26:49.859Z,8.20
2019-04-21T21:29:20.775Z,6.65
2019-04-21T21:31:50.675Z,6.40
2019-04-21T21:34:23.121Z,6.25
2019-04-21T21:36:51.148Z,7.58
2019-04-21T21:39:21.334Z,12.70
2019-04-21T21:41:44.324Z,9.08
2019-04-21T21:44:14.462Z,7.92
2019-04-21T21:46:48.685Z,8.58
2019-04-21T21:49:27.982Z,6.03
2019-04-21T21:51:52.900Z,7.05
2019-04-21T21:54:11.737Z,9.88
2019-04-21T21:56:43.017Z,5.80
2019-04-21T21:59:20.161Z,6.22
2019-04-21T22:01:48.667Z,6.83
2019-04-21T22:04:20.794Z,9.33
2019-04-21T22:06:53.772Z,8.43
2019-04-21T22:09:16.618Z,9.35
2019-04-21T22:11:48.617Z,6.90
2019-04-21T22:14:22.865Z,9.58
2019-04-21T22:17:06.821Z,8.70
2019-04-21T22:19:35.145Z,8.60
2019-04-21T22:22:07.680Z,9.33
2019-04-21T22:24:34.902Z,7.40
2019-04-21T22:26:52.411Z,9.60
2019-04-21T22:29:23.405Z,8.73
2019-04-21T22:32:00.175Z,8.65
2019-04-21T22:34:30.223Z,8.68
2019-04-21T22:37:07.174Z,9.38
2019-04-21T22:39:44.614Z,7.03
2019-04-21T22:42:05.560Z,9.00
2019-04-21T22:44:28.073Z,6.42
2019-04-21T22:47:06.170Z,7.72
2019-04-21T22:49:28.587Z,9.58
2019-04-21T22:52:03.971Z,9.18
2019-04-21T22:54:34.321Z,9.23
2019-04-21T22:57:07.338Z,8.38
2019-04-21T22:59:31.979Z,9.60
2019-04-21T23:02:06.451Z,9.23
2019-04-21T23:04:41.817Z,8.20
2019-04-21T23:07:10.226Z,10.43
2019-04-21T23:09:37.167Z,6.25
2019-04-21T23:12:07.923Z,8.33
2019-04-21T23:14:45.367Z,15.93
2019-04-21T23:17:29.214Z,8.93
2019-04-21T23:20:03.911Z,7.85
2019-04-21T23:22:21.415Z,7.75
2019-04-21T23:25:03.798Z,10.30
2019-04-21T23:27:23.801Z,12.58
2019-04-21T23:30:07.786Z,9.15
2019-04-21T23:32:25.921Z,11.20
2019-04-21T23:34:45.326Z,9.18
2019-04-21T23:37:19.856Z,7.47
2019-04-21T23:39:45.544Z,7.55
2019-04-21T23:42:22.569Z,8.70
2019-04-21T23:44:50.092Z,7.10
2019-04-21T23:47:29.257Z,8.43
2019-04-21T23:49:57.660Z,8.30
2019-04-21T23:52:18.341Z,7.80
2019-04-21T23:54:49.298Z,9.00
2019-04-21T23:57:29.827Z,9.33
2019-04-21T23:59:55.121Z,6.97
